Ana Sayfa
METAR-TAF:

METAR-TAF

Havaalanları :

Kota Bharu, Malezya

Enlem: 06-10N, Boylam: 102-17E, yükseklik: 5 m

Güncel hava durumu gözlemi

Rapor saat 20:00 UTC de 1 saat ve 6 dakika önce yapıldı.
Rüzgar doğudan 10 kt, kuzeydoğu ve doğu/güneydoğu arasında değişken
Sıcaklık 26°C
Nem 79%
Basınç 1011 hPa
Görüş mesafesi 10 km veya daha fazla
2000 ft yükseklikte az bulutlu

METAR: WMKC 092000Z 08010KT 050V110 9999 FEW020 26/22 Q1011

Saat: 05:06 (21:06 UTC)

Tahmin

Rapor saat 17:00 UTC de 4 saat ve 6 dakika önce yapıldı.
Ayın 09'si saat 18 UTC'den ayın 10'si saat 18 UTC'ye kadar geçerli Tahmin
Rüzgar doğu/kuzeydoğudan 10 kt
Görüş mesafesi 10 km veya daha fazla
2000 ft yükseklikte az bulutlu
Dönüşüyor
ayın 10'si saat 02 UTC'den ayın 10'si saat 03 UTC'ye kadar
1800 ft yükseklikte az bulutlu

TAF: WMKC 091700Z 0918/1018 07010KT 9999 FEW020 BECMG 1002/1003 FEW018

4.000'den fazla havaalanı için hava durumu gözlemleri ve tahminleri (METAR ve TAF raporları).

Kullanılabilir istasyonlar harita üzerinde sarı ve kırmızı noktalarla gösterilir.

İstasyonun adını görmek için fareyi noktanın üzerinde gezdirin.

Sonrasında hava gözlem ve tahminlerini görmek için tıklayın.

Haritayı değiştirmek için: yaklaştırmak için siyah artı işaretli yeşil düğmeye ve uzaklaştırmak için de eksi işaretli düğmeye hızla tıklayın; bitişik haritalar için yeşil okları kullanın.


METAR-TAF: